sensor_id;sensor_type;location;lat;lon;timestamp;P1;durP1;ratioP1;P2;durP2;ratioP2
64282;SDS011;50497;50.720;-2.084;2023-10-08T00:01:59;6.32;;;2.40;;
64282;SDS011;50497;50.720;-2.084;2023-10-08T00:04:26;0.28;;;0.28;;
64282;SDS011;50497;50.720;-2.084;2023-10-08T00:06:51;0.38;;;0.38;;
64282;SDS011;50497;50.720;-2.084;2023-10-08T00:09:17;0.28;;;0.28;;
64282;SDS011;50497;50.720;-2.084;2023-10-08T00:11:45;0.98;;;0.93;;
64282;SDS011;50497;50.720;-2.084;2023-10-08T00:14:17;4.00;;;2.00;;
64282;SDS011;50497;50.720;-2.084;2023-10-08T00:16:46;0.40;;;0.40;;
64282;SDS011;50497;50.720;-2.084;2023-10-08T00:19:15;0.30;;;0.30;;
64282;SDS011;50497;50.720;-2.084;2023-10-08T00:21:42;0.28;;;0.28;;
64282;SDS011;50497;50.720;-2.084;2023-10-08T00:24:10;0.38;;;0.38;;
64282;SDS011;50497;50.720;-2.084;2023-10-08T00:26:35;0.45;;;0.45;;
64282;SDS011;50497;50.720;-2.084;2023-10-08T00:29:05;4.70;;;3.45;;
64282;SDS011;50497;50.720;-2.084;2023-10-08T00:31:32;0.35;;;0.20;;
64282;SDS011;50497;50.720;-2.084;2023-10-08T00:34:03;1.88;;;1.67;;
64282;SDS011;50497;50.720;-2.084;2023-10-08T00:36:36;4.70;;;3.45;;
64282;SDS011;50497;50.720;-2.084;2023-10-08T00:39:05;1.85;;;1.13;;
64282;SDS011;50497;50.720;-2.084;2023-10-08T00:41:38;5.53;;;2.88;;
64282;SDS011;50497;50.720;-2.084;2023-10-08T00:44:08;3.58;;;2.03;;
64282;SDS011;50497;50.720;-2.084;2023-10-08T00:46:38;0.75;;;0.70;;
64282;SDS011;50497;50.720;-2.084;2023-10-08T00:49:07;1.55;;;1.05;;
64282;SDS011;50497;50.720;-2.084;2023-10-08T00:51:53;4.22;;;1.95;;
64282;SDS011;50497;50.720;-2.084;2023-10-08T00:54:33;1.85;;;1.30;;
64282;SDS011;50497;50.720;-2.084;2023-10-08T00:57:12;2.33;;;1.40;;
64282;SDS011;50497;50.720;-2.084;2023-10-08T00:59:45;2.03;;;1.63;;
64282;SDS011;50497;50.720;-2.084;2023-10-08T01:02:16;6.25;;;3.50;;
64282;SDS011;50497;50.720;-2.084;2023-10-08T01:04:45;1.40;;;1.20;;
64282;SDS011;50497;50.720;-2.084;2023-10-08T01:07:11;4.57;;;3.58;;
64282;SDS011;50497;50.720;-2.084;2023-10-08T01:09:41;3.97;;;2.28;;
64282;SDS011;50497;50.720;-2.084;2023-10-08T01:12:19;1.30;;;1.00;;
64282;SDS011;50497;50.720;-2.084;2023-10-08T01:14:54;4.60;;;2.15;;
64282;SDS011;50497;50.720;-2.084;2023-10-08T01:17:23;4.55;;;2.33;;
64282;SDS011;50497;50.720;-2.084;2023-10-08T01:19:50;5.07;;;2.83;;
64282;SDS011;50497;50.720;-2.084;2023-10-08T01:22:21;6.18;;;2.53;;
64282;SDS011;50497;50.720;-2.084;2023-10-08T01:24:47;5.20;;;2.42;;
64282;SDS011;50497;50.720;-2.084;2023-10-08T01:29:49;7.78;;;2.75;;
64282;SDS011;50497;50.720;-2.084;2023-10-08T01:32:18;4.80;;;2.30;;
64282;SDS011;50497;50.720;-2.084;2023-10-08T01:34:45;6.38;;;2.72;;
64282;SDS011;50497;50.720;-2.084;2023-10-08T01:37:15;5.50;;;2.45;;
64282;SDS011;50497;50.720;-2.084;2023-10-08T01:39:42;5.40;;;2.13;;
64282;SDS011;50497;50.720;-2.084;2023-10-08T01:42:11;5.05;;;2.20;;
64282;SDS011;50497;50.720;-2.084;2023-10-08T01:44:45;4.85;;;2.03;;
64282;SDS011;50497;50.720;-2.084;2023-10-08T01:47:12;5.40;;;2.22;;
64282;SDS011;50497;50.720;-2.084;2023-10-08T01:49:39;5.47;;;2.33;;
64282;SDS011;50497;50.720;-2.084;2023-10-08T01:52:05;7.25;;;2.50;;
64282;SDS011;50497;50.720;-2.084;2023-10-08T01:54:38;6.38;;;2.60;;
64282;SDS011;50497;50.720;-2.084;2023-10-08T01:57:04;5.80;;;2.53;;
64282;SDS011;50497;50.720;-2.084;2023-10-08T01:59:31;6.07;;;2.63;;
64282;SDS011;50497;50.720;-2.084;2023-10-08T02:01:57;5.95;;;2.63;;
64282;SDS011;50497;50.720;-2.084;2023-10-08T02:04:23;7.45;;;3.10;;
64282;SDS011;50497;50.720;-2.084;2023-10-08T02:06:48;5.85;;;2.60;;
64282;SDS011;50497;50.720;-2.084;2023-10-08T02:09:14;7.88;;;3.45;;
64282;SDS011;50497;50.720;-2.084;2023-10-08T02:11:49;7.85;;;3.28;;
64282;SDS011;50497;50.720;-2.084;2023-10-08T02:14:18;8.45;;;3.63;;
64282;SDS011;50497;50.720;-2.084;2023-10-08T02:16:45;6.70;;;3.42;;
64282;SDS011;50497;50.720;-2.084;2023-10-08T02:19:14;6.32;;;3.30;;
64282;SDS011;50497;50.720;-2.084;2023-10-08T02:21:44;6.53;;;3.28;;
64282;SDS011;50497;50.720;-2.084;2023-10-08T02:24:12;6.78;;;2.83;;
64282;SDS011;50497;50.720;-2.084;2023-10-08T02:26:38;7.25;;;3.63;;
64282;SDS011;50497;50.720;-2.084;2023-10-08T02:29:04;7.55;;;3.38;;
64282;SDS011;50497;50.720;-2.084;2023-10-08T02:31:39;7.78;;;3.72;;
64282;SDS011;50497;50.720;-2.084;2023-10-08T02:34:05;7.60;;;3.33;;
64282;SDS011;50497;50.720;-2.084;2023-10-08T02:36:33;8.63;;;3.72;;
64282;SDS011;50497;50.720;-2.084;2023-10-08T02:39:01;6.65;;;3.75;;
64282;SDS011;50497;50.720;-2.084;2023-10-08T02:41:31;7.10;;;4.55;;
64282;SDS011;50497;50.720;-2.084;2023-10-08T02:43:56;7.22;;;3.97;;
64282;SDS011;50497;50.720;-2.084;2023-10-08T02:46:24;6.25;;;3.38;;
64282;SDS011;50497;50.720;-2.084;2023-10-08T02:48:51;4.88;;;3.45;;
64282;SDS011;50497;50.720;-2.084;2023-10-08T02:51:17;4.47;;;2.58;;
64282;SDS011;50497;50.720;-2.084;2023-10-08T02:53:45;4.63;;;2.75;;
64282;SDS011;50497;50.720;-2.084;2023-10-08T02:56:11;5.78;;;5.18;;
64282;SDS011;50497;50.720;-2.084;2023-10-08T02:58:41;5.63;;;4.20;;
64282;SDS011;50497;50.720;-2.084;2023-10-08T03:01:09;10.00;;;4.15;;
64282;SDS011;50497;50.720;-2.084;2023-10-08T03:03:40;7.00;;;3.72;;
64282;SDS011;50497;50.720;-2.084;2023-10-08T03:06:11;6.95;;;3.40;;
64282;SDS011;50497;50.720;-2.084;2023-10-08T03:08:39;10.95;;;4.72;;
64282;SDS011;50497;50.720;-2.084;2023-10-08T03:11:08;9.40;;;4.25;;
64282;SDS011;50497;50.720;-2.084;2023-10-08T03:13:41;11.25;;;4.85;;
64282;SDS011;50497;50.720;-2.084;2023-10-08T03:16:11;9.52;;;3.85;;
64282;SDS011;50497;50.720;-2.084;2023-10-08T03:18:38;8.88;;;3.92;;
64282;SDS011;50497;50.720;-2.084;2023-10-08T03:21:09;8.75;;;4.93;;
64282;SDS011;50497;50.720;-2.084;2023-10-08T03:23:48;11.05;;;5.25;;
64282;SDS011;50497;50.720;-2.084;2023-10-08T03:26:15;8.70;;;4.25;;
64282;SDS011;50497;50.720;-2.084;2023-10-08T03:29:02;6.82;;;3.30;;
64282;SDS011;50497;50.720;-2.084;2023-10-08T03:31:34;6.35;;;3.28;;
64282;SDS011;50497;50.720;-2.084;2023-10-08T03:34:11;4.93;;;2.60;;
64282;SDS011;50497;50.720;-2.084;2023-10-08T03:36:41;5.60;;;2.58;;
64282;SDS011;50497;50.720;-2.084;2023-10-08T03:39:18;5.38;;;2.20;;
64282;SDS011;50497;50.720;-2.084;2023-10-08T03:41:44;5.20;;;2.25;;
64282;SDS011;50497;50.720;-2.084;2023-10-08T03:44:28;6.82;;;3.22;;
64282;SDS011;50497;50.720;-2.084;2023-10-08T03:46:55;5.72;;;2.67;;
64282;SDS011;50497;50.720;-2.084;2023-10-08T03:49:22;6.25;;;2.97;;
64282;SDS011;50497;50.720;-2.084;2023-10-08T03:51:47;6.10;;;2.85;;
64282;SDS011;50497;50.720;-2.084;2023-10-08T03:54:17;6.07;;;2.33;;
64282;SDS011;50497;50.720;-2.084;2023-10-08T03:56:44;4.65;;;1.95;;
64282;SDS011;50497;50.720;-2.084;2023-10-08T03:59:13;5.47;;;2.10;;
64282;SDS011;50497;50.720;-2.084;2023-10-08T04:01:40;4.38;;;1.90;;
64282;SDS011;50497;50.720;-2.084;2023-10-08T04:04:06;7.03;;;2.20;;
64282;SDS011;50497;50.720;-2.084;2023-10-08T04:06:37;5.25;;;2.08;;
64282;SDS011;50497;50.720;-2.084;2023-10-08T04:09:03;5.28;;;2.30;;
64282;SDS011;50497;50.720;-2.084;2023-10-08T04:11:35;4.65;;;2.25;;
64282;SDS011;50497;50.720;-2.084;2023-10-08T04:14:08;5.00;;;2.55;;
64282;SDS011;50497;50.720;-2.084;2023-10-08T04:16:34;6.95;;;3.10;;
64282;SDS011;50497;50.720;-2.084;2023-10-08T04:19:02;4.50;;;2.10;;
64282;SDS011;50497;50.720;-2.084;2023-10-08T04:21:32;9.88;;;3.22;;
64282;SDS011;50497;50.720;-2.084;2023-10-08T04:23:58;7.07;;;3.35;;
64282;SDS011;50497;50.720;-2.084;2023-10-08T04:26:33;7.75;;;3.63;;
64282;SDS011;50497;50.720;-2.084;2023-10-08T04:29:00;9.27;;;3.83;;
64282;SDS011;50497;50.720;-2.084;2023-10-08T04:31:31;10.55;;;3.88;;
64282;SDS011;50497;50.720;-2.084;2023-10-08T04:34:11;8.27;;;3.67;;
64282;SDS011;50497;50.720;-2.084;2023-10-08T04:36:44;9.45;;;3.60;;
64282;SDS011;50497;50.720;-2.084;2023-10-08T04:39:11;7.85;;;3.28;;
64282;SDS011;50497;50.720;-2.084;2023-10-08T04:41:42;6.57;;;2.83;;
64282;SDS011;50497;50.720;-2.084;2023-10-08T04:44:08;8.10;;;3.30;;
64282;SDS011;50497;50.720;-2.084;2023-10-08T04:46:40;9.00;;;3.72;;
64282;SDS011;50497;50.720;-2.084;2023-10-08T04:49:12;7.18;;;3.38;;
64282;SDS011;50497;50.720;-2.084;2023-10-08T04:51:56;7.25;;;3.33;;
64282;SDS011;50497;50.720;-2.084;2023-10-08T04:54:26;7.72;;;3.38;;
64282;SDS011;50497;50.720;-2.084;2023-10-08T04:56:55;6.63;;;3.22;;
64282;SDS011;50497;50.720;-2.084;2023-10-08T04:59:27;6.65;;;3.08;;
64282;SDS011;50497;50.720;-2.084;2023-10-08T05:02:00;8.18;;;3.10;;
64282;SDS011;50497;50.720;-2.084;2023-10-08T05:04:41;7.57;;;3.63;;
64282;SDS011;50497;50.720;-2.084;2023-10-08T05:07:25;6.75;;;3.35;;
64282;SDS011;50497;50.720;-2.084;2023-10-08T05:10:23;5.45;;;3.00;;
64282;SDS011;50497;50.720;-2.084;2023-10-08T05:12:53;8.35;;;3.60;;
64282;SDS011;50497;50.720;-2.084;2023-10-08T05:15:28;8.63;;;3.22;;
64282;SDS011;50497;50.720;-2.084;2023-10-08T05:18:07;6.78;;;3.40;;
64282;SDS011;50497;50.720;-2.084;2023-10-08T05:20:47;6.45;;;3.30;;
64282;SDS011;50497;50.720;-2.084;2023-10-08T05:23:16;8.57;;;3.50;;
64282;SDS011;50497;50.720;-2.084;2023-10-08T05:25:47;8.40;;;3.70;;
64282;SDS011;50497;50.720;-2.084;2023-10-08T05:28:37;8.85;;;4.03;;
64282;SDS011;50497;50.720;-2.084;2023-10-08T05:31:26;7.90;;;3.83;;
64282;SDS011;50497;50.720;-2.084;2023-10-08T05:34:12;8.75;;;3.72;;
64282;SDS011;50497;50.720;-2.084;2023-10-08T05:36:57;9.23;;;4.03;;
64282;SDS011;50497;50.720;-2.084;2023-10-08T05:39:25;9.05;;;3.85;;
64282;SDS011;50497;50.720;-2.084;2023-10-08T05:42:08;8.20;;;3.75;;
64282;SDS011;50497;50.720;-2.084;2023-10-08T05:44:56;8.45;;;3.95;;
64282;SDS011;50497;50.720;-2.084;2023-10-08T05:47:34;10.32;;;4.22;;
64282;SDS011;50497;50.720;-2.084;2023-10-08T05:50:00;7.43;;;3.50;;
64282;SDS011;50497;50.720;-2.084;2023-10-08T05:52:41;8.27;;;3.38;;
64282;SDS011;50497;50.720;-2.084;2023-10-08T05:55:33;9.35;;;3.65;;
64282;SDS011;50497;50.720;-2.084;2023-10-08T05:58:06;8.15;;;3.83;;
64282;SDS011;50497;50.720;-2.084;2023-10-08T06:00:44;8.20;;;3.20;;
64282;SDS011;50497;50.720;-2.084;2023-10-08T06:03:12;5.20;;;2.70;;
64282;SDS011;50497;50.720;-2.084;2023-10-08T06:05:57;7.78;;;3.90;;
64282;SDS011;50497;50.720;-2.084;2023-10-08T06:08:36;7.95;;;3.38;;
64282;SDS011;50497;50.720;-2.084;2023-10-08T06:11:17;7.32;;;3.88;;
64282;SDS011;50497;50.720;-2.084;2023-10-08T06:14:02;6.65;;;3.38;;
64282;SDS011;50497;50.720;-2.084;2023-10-08T06:16:38;7.40;;;3.50;;
64282;SDS011;50497;50.720;-2.084;2023-10-08T06:19:07;6.78;;;3.53;;
64282;SDS011;50497;50.720;-2.084;2023-10-08T06:21:34;10.07;;;4.25;;
64282;SDS011;50497;50.720;-2.084;2023-10-08T06:24:02;9.38;;;3.85;;
64282;SDS011;50497;50.720;-2.084;2023-10-08T06:26:33;9.50;;;3.30;;
64282;SDS011;50497;50.720;-2.084;2023-10-08T06:29:03;6.53;;;3.55;;
64282;SDS011;50497;50.720;-2.084;2023-10-08T06:31:43;7.13;;;3.75;;
64282;SDS011;50497;50.720;-2.084;2023-10-08T06:34:15;9.23;;;4.50;;
64282;SDS011;50497;50.720;-2.084;2023-10-08T06:36:41;6.65;;;3.30;;
64282;SDS011;50497;50.720;-2.084;2023-10-08T06:39:06;7.18;;;3.58;;
64282;SDS011;50497;50.720;-2.084;2023-10-08T06:41:36;7.13;;;3.70;;
64282;SDS011;50497;50.720;-2.084;2023-10-08T06:44:02;7.32;;;3.65;;
64282;SDS011;50497;50.720;-2.084;2023-10-08T06:46:28;8.70;;;4.82;;
64282;SDS011;50497;50.720;-2.084;2023-10-08T06:48:58;10.02;;;4.43;;
64282;SDS011;50497;50.720;-2.084;2023-10-08T06:51:23;8.35;;;4.18;;
64282;SDS011;50497;50.720;-2.084;2023-10-08T06:53:51;8.65;;;4.20;;
64282;SDS011;50497;50.720;-2.084;2023-10-08T06:56:19;8.95;;;4.05;;
64282;SDS011;50497;50.720;-2.084;2023-10-08T06:58:45;7.65;;;3.60;;
64282;SDS011;50497;50.720;-2.084;2023-10-08T07:01:18;8.43;;;4.25;;
64282;SDS011;50497;50.720;-2.084;2023-10-08T07:03:46;8.15;;;3.63;;
64282;SDS011;50497;50.720;-2.084;2023-10-08T07:06:14;8.02;;;3.58;;
64282;SDS011;50497;50.720;-2.084;2023-10-08T07:08:50;8.30;;;3.97;;
64282;SDS011;50497;50.720;-2.084;2023-10-08T07:11:19;8.50;;;4.03;;
64282;SDS011;50497;50.720;-2.084;2023-10-08T07:13:45;8.18;;;3.80;;
64282;SDS011;50497;50.720;-2.084;2023-10-08T07:16:11;8.88;;;3.97;;
64282;SDS011;50497;50.720;-2.084;2023-10-08T07:18:37;11.35;;;3.67;;
64282;SDS011;50497;50.720;-2.084;2023-10-08T07:21:02;7.22;;;3.38;;
64282;SDS011;50497;50.720;-2.084;2023-10-08T07:25:59;8.82;;;4.57;;
64282;SDS011;50497;50.720;-2.084;2023-10-08T07:28:43;6.45;;;3.20;;
64282;SDS011;50497;50.720;-2.084;2023-10-08T07:31:13;6.15;;;2.70;;
64282;SDS011;50497;50.720;-2.084;2023-10-08T07:33:40;6.93;;;2.75;;
64282;SDS011;50497;50.720;-2.084;2023-10-08T07:36:09;5.93;;;2.70;;
64282;SDS011;50497;50.720;-2.084;2023-10-08T07:38:40;5.60;;;2.35;;
64282;SDS011;50497;50.720;-2.084;2023-10-08T07:41:09;5.75;;;2.60;;
64282;SDS011;50497;50.720;-2.084;2023-10-08T07:43:40;4.38;;;2.28;;
64282;SDS011;50497;50.720;-2.084;2023-10-08T07:46:07;5.50;;;2.55;;
64282;SDS011;50497;50.720;-2.084;2023-10-08T07:50:58;5.87;;;2.57;;
64282;SDS011;50497;50.720;-2.084;2023-10-08T07:53:23;5.97;;;2.92;;
64282;SDS011;50497;50.720;-2.084;2023-10-08T07:55:49;6.85;;;2.92;;
64282;SDS011;50497;50.720;-2.084;2023-10-08T07:58:16;6.57;;;3.10;;
64282;SDS011;50497;50.720;-2.084;2023-10-08T08:00:42;5.90;;;2.80;;
64282;SDS011;50497;50.720;-2.084;2023-10-08T08:03:16;6.63;;;2.65;;
64282;SDS011;50497;50.720;-2.084;2023-10-08T08:05:43;6.65;;;2.90;;
64282;SDS011;50497;50.720;-2.084;2023-10-08T08:08:09;8.63;;;5.13;;
64282;SDS011;50497;50.720;-2.084;2023-10-08T08:10:35;10.25;;;4.93;;
64282;SDS011;50497;50.720;-2.084;2023-10-08T08:13:04;10.05;;;6.22;;
64282;SDS011;50497;50.720;-2.084;2023-10-08T08:15:34;9.50;;;5.85;;
64282;SDS011;50497;50.720;-2.084;2023-10-08T08:18:05;8.68;;;4.80;;
64282;SDS011;50497;50.720;-2.084;2023-10-08T08:23:08;7.47;;;3.40;;
64282;SDS011;50497;50.720;-2.084;2023-10-08T08:25:38;6.97;;;3.40;;
64282;SDS011;50497;50.720;-2.084;2023-10-08T08:28:12;6.65;;;3.17;;
64282;SDS011;50497;50.720;-2.084;2023-10-08T08:30:42;6.28;;;2.88;;
64282;SDS011;50497;50.720;-2.084;2023-10-08T08:33:17;5.53;;;2.72;;
64282;SDS011;50497;50.720;-2.084;2023-10-08T08:35:57;5.18;;;2.58;;
64282;SDS011;50497;50.720;-2.084;2023-10-08T08:38:23;5.53;;;2.50;;
64282;SDS011;50497;50.720;-2.084;2023-10-08T08:40:49;4.97;;;2.33;;
64282;SDS011;50497;50.720;-2.084;2023-10-08T08:43:14;3.78;;;2.40;;
64282;SDS011;50497;50.720;-2.084;2023-10-08T08:45:41;3.42;;;3.05;;
64282;SDS011;50497;50.720;-2.084;2023-10-08T08:48:08;3.28;;;1.35;;
64282;SDS011;50497;50.720;-2.084;2023-10-08T08:50:35;4.88;;;2.08;;
64282;SDS011;50497;50.720;-2.084;2023-10-08T08:53:03;3.90;;;1.90;;
64282;SDS011;50497;50.720;-2.084;2023-10-08T08:57:57;5.53;;;2.10;;
64282;SDS011;50497;50.720;-2.084;2023-10-08T09:00:24;5.35;;;2.25;;
64282;SDS011;50497;50.720;-2.084;2023-10-08T09:02:54;4.65;;;2.50;;
64282;SDS011;50497;50.720;-2.084;2023-10-08T09:05:20;3.80;;;1.70;;
64282;SDS011;50497;50.720;-2.084;2023-10-08T09:08:03;4.20;;;1.85;;
64282;SDS011;50497;50.720;-2.084;2023-10-08T09:10:32;5.20;;;2.00;;
64282;SDS011;50497;50.720;-2.084;2023-10-08T09:13:03;3.92;;;1.83;;
64282;SDS011;50497;50.720;-2.084;2023-10-08T09:15:29;4.10;;;1.63;;
64282;SDS011;50497;50.720;-2.084;2023-10-08T09:20:21;3.67;;;1.77;;
64282;SDS011;50497;50.720;-2.084;2023-10-08T09:25:32;2.17;;;1.35;;
64282;SDS011;50497;50.720;-2.084;2023-10-08T09:27:58;0.85;;;0.82;;
64282;SDS011;50497;50.720;-2.084;2023-10-08T09:32:50;0.40;;;0.38;;
64282;SDS011;50497;50.720;-2.084;2023-10-08T09:35:16;2.83;;;2.03;;
64282;SDS011;50497;50.720;-2.084;2023-10-08T09:37:44;0.10;;;0.10;;
64282;SDS011;50497;50.720;-2.084;2023-10-08T09:40:11;0.00;;;0.00;;
64282;SDS011;50497;50.720;-2.084;2023-10-08T09:42:39;0.63;;;0.13;;
64282;SDS011;50497;50.720;-2.084;2023-10-08T09:45:07;1.45;;;0.65;;
64282;SDS011;50497;50.720;-2.084;2023-10-08T09:47:35;3.15;;;2.75;;
64282;SDS011;50497;50.720;-2.084;2023-10-08T09:50:04;2.85;;;1.60;;
64282;SDS011;50497;50.720;-2.084;2023-10-08T09:52:34;4.00;;;2.15;;
64282;SDS011;50497;50.720;-2.084;2023-10-08T09:55:08;0.10;;;0.10;;
64282;SDS011;50497;50.720;-2.084;2023-10-08T09:57:37;0.10;;;0.10;;
64282;SDS011;50497;50.720;-2.084;2023-10-08T10:00:04;0.00;;;0.00;;
64282;SDS011;50497;50.720;-2.084;2023-10-08T10:02:36;0.17;;;0.17;;
64282;SDS011;50497;50.720;-2.084;2023-10-08T10:05:02;0.15;;;0.15;;
64282;SDS011;50497;50.720;-2.084;2023-10-08T10:07:28;0.35;;;0.35;;
64282;SDS011;50497;50.720;-2.084;2023-10-08T10:09:55;0.75;;;0.70;;
64282;SDS011;50497;50.720;-2.084;2023-10-08T10:12:21;0.05;;;0.05;;
64282;SDS011;50497;50.720;-2.084;2023-10-08T10:14:54;0.30;;;0.28;;
64282;SDS011;50497;50.720;-2.084;2023-10-08T10:17:27;0.00;;;0.00;;
64282;SDS011;50497;50.720;-2.084;2023-10-08T10:19:54;1.35;;;1.27;;
64282;SDS011;50497;50.720;-2.084;2023-10-08T10:24:59;0.17;;;0.15;;
64282;SDS011;50497;50.720;-2.084;2023-10-08T10:27:28;1.17;;;0.85;;
64282;SDS011;50497;50.720;-2.084;2023-10-08T10:30:01;1.80;;;1.10;;
64282;SDS011;50497;50.720;-2.084;2023-10-08T10:32:43;1.73;;;1.35;;
64282;SDS011;50497;50.720;-2.084;2023-10-08T10:35:14;1.95;;;1.33;;
64282;SDS011;50497;50.720;-2.084;2023-10-08T10:37:42;0.77;;;0.77;;
64282;SDS011;50497;50.720;-2.084;2023-10-08T10:40:19;0.50;;;0.50;;
64282;SDS011;50497;50.720;-2.084;2023-10-08T10:43:08;0.10;;;0.10;;
64282;SDS011;50497;50.720;-2.084;2023-10-08T10:45:45;0.00;;;0.00;;
64282;SDS011;50497;50.720;-2.084;2023-10-08T10:48:12;0.10;;;0.10;;
64282;SDS011;50497;50.720;-2.084;2023-10-08T10:50:41;0.00;;;0.00;;
64282;SDS011;50497;50.720;-2.084;2023-10-08T10:53:25;0.00;;;0.00;;
64282;SDS011;50497;50.720;-2.084;2023-10-08T10:55:53;0.03;;;0.03;;
64282;SDS011;50497;50.720;-2.084;2023-10-08T10:58:34;0.00;;;0.00;;
64282;SDS011;50497;50.720;-2.084;2023-10-08T11:01:04;0.00;;;0.00;;
64282;SDS011;50497;50.720;-2.084;2023-10-08T11:03:51;0.10;;;0.10;;
64282;SDS011;50497;50.720;-2.084;2023-10-08T11:06:17;0.00;;;0.00;;
64282;SDS011;50497;50.720;-2.084;2023-10-08T11:08:48;0.10;;;0.10;;
64282;SDS011;50497;50.720;-2.084;2023-10-08T11:11:19;0.00;;;0.00;;
64282;SDS011;50497;50.720;-2.084;2023-10-08T11:13:52;0.05;;;0.05;;
64282;SDS011;50497;50.720;-2.084;2023-10-08T11:16:22;0.00;;;0.00;;
64282;SDS011;50497;50.720;-2.084;2023-10-08T11:18:48;0.00;;;0.00;;
64282;SDS011;50497;50.720;-2.084;2023-10-08T11:21:16;0.00;;;0.00;;
64282;SDS011;50497;50.720;-2.084;2023-10-08T11:23:46;0.00;;;0.00;;
64282;SDS011;50497;50.720;-2.084;2023-10-08T11:26:20;0.00;;;0.00;;
64282;SDS011;50497;50.720;-2.084;2023-10-08T11:28:56;0.00;;;0.00;;
64282;SDS011;50497;50.720;-2.084;2023-10-08T11:31:25;0.00;;;0.00;;
64282;SDS011;50497;50.720;-2.084;2023-10-08T11:33:58;0.00;;;0.00;;
64282;SDS011;50497;50.720;-2.084;2023-10-08T11:36:24;0.05;;;0.05;;
64282;SDS011;50497;50.720;-2.084;2023-10-08T11:38:53;0.10;;;0.10;;
64282;SDS011;50497;50.720;-2.084;2023-10-08T11:41:25;0.10;;;0.10;;
64282;SDS011;50497;50.720;-2.084;2023-10-08T11:43:53;0.10;;;0.10;;
64282;SDS011;50497;50.720;-2.084;2023-10-08T11:46:29;0.10;;;0.10;;
64282;SDS011;50497;50.720;-2.084;2023-10-08T11:49:03;0.10;;;0.10;;
64282;SDS011;50497;50.720;-2.084;2023-10-08T11:51:33;0.10;;;0.10;;
64282;SDS011;50497;50.720;-2.084;2023-10-08T11:54:03;0.10;;;0.10;;
64282;SDS011;50497;50.720;-2.084;2023-10-08T11:56:31;0.10;;;0.10;;
64282;SDS011;50497;50.720;-2.084;2023-10-08T11:58:58;0.10;;;0.10;;
64282;SDS011;50497;50.720;-2.084;2023-10-08T12:01:25;0.10;;;0.10;;
64282;SDS011;50497;50.720;-2.084;2023-10-08T12:03:52;0.20;;;0.20;;
64282;SDS011;50497;50.720;-2.084;2023-10-08T12:06:18;0.10;;;0.10;;
64282;SDS011;50497;50.720;-2.084;2023-10-08T12:08:46;0.07;;;0.07;;
64282;SDS011;50497;50.720;-2.084;2023-10-08T12:11:14;0.10;;;0.10;;
64282;SDS011;50497;50.720;-2.084;2023-10-08T12:13:41;0.10;;;0.10;;
64282;SDS011;50497;50.720;-2.084;2023-10-08T12:16:13;0.10;;;0.10;;
64282;SDS011;50497;50.720;-2.084;2023-10-08T12:18:46;0.10;;;0.10;;
64282;SDS011;50497;50.720;-2.084;2023-10-08T12:21:22;0.00;;;0.00;;
64282;SDS011;50497;50.720;-2.084;2023-10-08T12:23:49;0.10;;;0.10;;
64282;SDS011;50497;50.720;-2.084;2023-10-08T12:26:16;0.10;;;0.10;;
64282;SDS011;50497;50.720;-2.084;2023-10-08T12:28:44;0.10;;;0.10;;
64282;SDS011;50497;50.720;-2.084;2023-10-08T12:31:13;0.10;;;0.10;;
64282;SDS011;50497;50.720;-2.084;2023-10-08T12:33:40;0.10;;;0.10;;
64282;SDS011;50497;50.720;-2.084;2023-10-08T12:36:08;0.10;;;0.10;;
64282;SDS011;50497;50.720;-2.084;2023-10-08T12:38:38;0.10;;;0.10;;
64282;SDS011;50497;50.720;-2.084;2023-10-08T12:41:10;0.10;;;0.10;;
64282;SDS011;50497;50.720;-2.084;2023-10-08T12:43:42;0.10;;;0.10;;
64282;SDS011;50497;50.720;-2.084;2023-10-08T12:46:17;0.10;;;0.10;;
64282;SDS011;50497;50.720;-2.084;2023-10-08T12:48:44;0.10;;;0.10;;
64282;SDS011;50497;50.720;-2.084;2023-10-08T12:51:13;0.07;;;0.07;;
64282;SDS011;50497;50.720;-2.084;2023-10-08T12:53:39;0.10;;;0.10;;
64282;SDS011;50497;50.720;-2.084;2023-10-08T12:56:07;0.15;;;0.15;;
64282;SDS011;50497;50.720;-2.084;2023-10-08T12:58:40;0.20;;;0.20;;
64282;SDS011;50497;50.720;-2.084;2023-10-08T13:01:15;0.10;;;0.10;;
64282;SDS011;50497;50.720;-2.084;2023-10-08T13:03:42;0.15;;;0.15;;
64282;SDS011;50497;50.720;-2.084;2023-10-08T13:06:19;0.20;;;0.20;;
64282;SDS011;50497;50.720;-2.084;2023-10-08T13:08:53;0.17;;;0.17;;
64282;SDS011;50497;50.720;-2.084;2023-10-08T13:11:19;0.10;;;0.10;;
64282;SDS011;50497;50.720;-2.084;2023-10-08T13:13:48;0.10;;;0.10;;
64282;SDS011;50497;50.720;-2.084;2023-10-08T13:16:14;0.10;;;0.10;;
64282;SDS011;50497;50.720;-2.084;2023-10-08T13:18:40;0.20;;;0.20;;
64282;SDS011;50497;50.720;-2.084;2023-10-08T13:21:08;0.00;;;0.00;;
64282;SDS011;50497;50.720;-2.084;2023-10-08T13:23:34;0.17;;;0.17;;
64282;SDS011;50497;50.720;-2.084;2023-10-08T13:26:00;0.20;;;0.20;;
64282;SDS011;50497;50.720;-2.084;2023-10-08T13:28:29;0.17;;;0.17;;
64282;SDS011;50497;50.720;-2.084;2023-10-08T13:30:58;0.22;;;0.22;;
64282;SDS011;50497;50.720;-2.084;2023-10-08T13:33:24;0.20;;;0.20;;
64282;SDS011;50497;50.720;-2.084;2023-10-08T13:35:49;0.20;;;0.20;;
64282;SDS011;50497;50.720;-2.084;2023-10-08T13:38:18;0.20;;;0.20;;
64282;SDS011;50497;50.720;-2.084;2023-10-08T13:40:47;0.20;;;0.20;;
64282;SDS011;50497;50.720;-2.084;2023-10-08T13:43:39;0.20;;;0.20;;
64282;SDS011;50497;50.720;-2.084;2023-10-08T13:46:06;0.20;;;0.20;;
64282;SDS011;50497;50.720;-2.084;2023-10-08T13:48:35;0.13;;;0.13;;
64282;SDS011;50497;50.720;-2.084;2023-10-08T13:51:01;0.10;;;0.10;;
64282;SDS011;50497;50.720;-2.084;2023-10-08T13:53:32;0.10;;;0.10;;
64282;SDS011;50497;50.720;-2.084;2023-10-08T13:56:01;0.15;;;0.15;;
64282;SDS011;50497;50.720;-2.084;2023-10-08T13:58:27;0.10;;;0.10;;
64282;SDS011;50497;50.720;-2.084;2023-10-08T14:00:55;0.10;;;0.10;;
64282;SDS011;50497;50.720;-2.084;2023-10-08T14:03:21;0.10;;;0.10;;
64282;SDS011;50497;50.720;-2.084;2023-10-08T14:05:49;0.10;;;0.10;;
64282;SDS011;50497;50.720;-2.084;2023-10-08T14:08:19;0.10;;;0.10;;
64282;SDS011;50497;50.720;-2.084;2023-10-08T14:10:45;0.10;;;0.10;;
64282;SDS011;50497;50.720;-2.084;2023-10-08T14:13:13;0.20;;;0.20;;
64282;SDS011;50497;50.720;-2.084;2023-10-08T14:15:44;0.10;;;0.10;;
64282;SDS011;50497;50.720;-2.084;2023-10-08T14:18:13;0.20;;;0.20;;
64282;SDS011;50497;50.720;-2.084;2023-10-08T14:20:43;0.20;;;0.20;;
64282;SDS011;50497;50.720;-2.084;2023-10-08T14:23:11;0.10;;;0.10;;
64282;SDS011;50497;50.720;-2.084;2023-10-08T14:25:37;0.25;;;0.25;;
64282;SDS011;50497;50.720;-2.084;2023-10-08T14:28:09;0.10;;;0.10;;
64282;SDS011;50497;50.720;-2.084;2023-10-08T14:30:46;0.10;;;0.10;;
64282;SDS011;50497;50.720;-2.084;2023-10-08T14:33:15;0.13;;;0.13;;
64282;SDS011;50497;50.720;-2.084;2023-10-08T14:35:49;0.10;;;0.10;;
64282;SDS011;50497;50.720;-2.084;2023-10-08T14:38:34;0.10;;;0.10;;
64282;SDS011;50497;50.720;-2.084;2023-10-08T14:41:18;0.10;;;0.10;;
64282;SDS011;50497;50.720;-2.084;2023-10-08T14:44:02;0.00;;;0.00;;
64282;SDS011;50497;50.720;-2.084;2023-10-08T14:46:29;0.10;;;0.10;;
64282;SDS011;50497;50.720;-2.084;2023-10-08T14:48:57;0.10;;;0.10;;
64282;SDS011;50497;50.720;-2.084;2023-10-08T14:51:23;0.10;;;0.10;;
64282;SDS011;50497;50.720;-2.084;2023-10-08T14:53:49;0.10;;;0.10;;
64282;SDS011;50497;50.720;-2.084;2023-10-08T14:56:14;0.10;;;0.10;;
64282;SDS011;50497;50.720;-2.084;2023-10-08T14:58:41;0.10;;;0.10;;
64282;SDS011;50497;50.720;-2.084;2023-10-08T15:01:06;0.00;;;0.00;;
64282;SDS011;50497;50.720;-2.084;2023-10-08T15:03:32;0.00;;;0.00;;
64282;SDS011;50497;50.720;-2.084;2023-10-08T15:05:57;0.00;;;0.00;;
64282;SDS011;50497;50.720;-2.084;2023-10-08T15:08:23;0.00;;;0.00;;
64282;SDS011;50497;50.720;-2.084;2023-10-08T15:10:49;0.00;;;0.00;;
64282;SDS011;50497;50.720;-2.084;2023-10-08T15:13:14;0.00;;;0.00;;
64282;SDS011;50497;50.720;-2.084;2023-10-08T15:15:40;0.00;;;0.00;;